createdAt,value
2022-10-10T00:02:13.891Z,3.80
2022-10-10T00:04:41.222Z,3.40
2022-10-10T00:07:07.851Z,3.70
2022-10-10T00:09:34.435Z,3.53
2022-10-10T00:21:43.063Z,3.40
2022-10-10T00:24:10.548Z,4.10
2022-10-10T00:26:37.176Z,3.35
2022-10-10T00:29:03.859Z,3.53
2022-10-10T00:31:30.537Z,3.20
2022-10-10T00:33:57.227Z,3.40
2022-10-10T00:36:23.819Z,3.30
2022-10-10T00:38:50.370Z,3.03
2022-10-10T00:41:17.555Z,3.08
2022-10-10T00:44:00.697Z,3.42
2022-10-10T00:46:27.509Z,2.60
2022-10-10T00:48:54.213Z,2.83
2022-10-10T00:51:20.897Z,3.00
2022-10-10T00:53:49.302Z,2.60
2022-10-10T00:56:17.547Z,2.65
2022-10-10T00:58:46.406Z,2.92
2022-10-10T01:01:13.215Z,2.88
2022-10-10T01:03:39.882Z,2.40
2022-10-10T01:06:06.687Z,2.50
2022-10-10T01:11:17.453Z,2.75
2022-10-10T01:16:43.718Z,2.50
2022-10-10T01:19:13.553Z,2.38
2022-10-10T01:21:58.648Z,2.88
2022-10-10T01:24:42.442Z,2.80
2022-10-10T01:27:31.870Z,2.53
2022-10-10T01:32:32.982Z,2.75
2022-10-10T01:35:14.974Z,2.40
2022-10-10T01:37:47.547Z,2.10
2022-10-10T01:40:14.059Z,2.60
2022-10-10T01:47:48.644Z,2.35
2022-10-10T01:58:11.397Z,2.28
2022-10-10T02:05:54.039Z,2.45
2022-10-10T02:08:29.656Z,2.35
2022-10-10T02:10:58.319Z,2.42
2022-10-10T02:13:28.474Z,2.60
2022-10-10T02:20:48.928Z,3.17
2022-10-10T02:23:16.525Z,2.30
2022-10-10T02:25:44.443Z,2.28
2022-10-10T02:28:15.161Z,2.88
2022-10-10T02:30:44.680Z,3.30
2022-10-10T02:33:14.097Z,2.70
2022-10-10T02:35:42.390Z,3.03
2022-10-10T02:38:10.380Z,2.45
2022-10-10T02:40:37.417Z,2.42
2022-10-10T02:43:06.570Z,2.70
2022-10-10T02:45:34.249Z,2.90
2022-10-10T02:48:00.992Z,2.80
2022-10-10T02:50:28.893Z,2.63
2022-10-10T02:52:55.848Z,2.90
2022-10-10T02:55:22.532Z,2.92
2022-10-10T02:57:49.120Z,2.90
2022-10-10T03:00:16.251Z,2.90
2022-10-10T03:02:42.850Z,3.28
2022-10-10T03:05:10.138Z,2.90
2022-10-10T03:07:36.795Z,3.25
2022-10-10T03:10:06.166Z,2.92
2022-10-10T03:12:33.280Z,2.85
2022-10-10T03:14:59.891Z,3.28
2022-10-10T03:17:26.552Z,3.47
2022-10-10T03:19:53.193Z,2.40
2022-10-10T03:22:20.062Z,3.13
2022-10-10T03:24:46.675Z,2.70
2022-10-10T03:27:13.239Z,2.70
2022-10-10T03:29:39.814Z,2.45
2022-10-10T03:32:10.759Z,2.70
2022-10-10T03:34:37.891Z,3.03
2022-10-10T03:37:04.577Z,3.08
2022-10-10T03:39:31.217Z,2.83
2022-10-10T03:41:58.072Z,3.05
2022-10-10T03:49:15.786Z,3.22
2022-10-10T03:51:42.480Z,2.92
2022-10-10T03:54:09.176Z,3.15
2022-10-10T03:56:36.146Z,3.10
2022-10-10T04:01:30.434Z,3.42
2022-10-10T04:03:57.511Z,2.67
2022-10-10T04:06:24.228Z,2.55
2022-10-10T04:28:17.707Z,3.00
2022-10-10T04:30:47.246Z,2.70
2022-10-10T04:33:15.063Z,2.80
2022-10-10T04:35:41.783Z,3.13
2022-10-10T04:38:08.344Z,3.55
2022-10-10T04:40:35.841Z,3.33
2022-10-10T04:43:02.480Z,3.55
2022-10-10T04:45:29.095Z,3.15
2022-10-10T04:50:23.608Z,3.05
2022-10-10T04:52:53.234Z,3.40
2022-10-10T05:02:43.548Z,2.80
2022-10-10T05:05:10.326Z,3.28
2022-10-10T05:07:36.977Z,3.20
2022-10-10T05:12:29.792Z,3.53
2022-10-10T05:14:56.425Z,3.25
2022-10-10T05:17:23.095Z,3.13
2022-10-10T05:19:49.769Z,3.35
2022-10-10T05:22:16.412Z,3.53
2022-10-10T05:34:25.076Z,3.60
2022-10-10T05:41:42.657Z,3.70
2022-10-10T05:44:10.208Z,3.20
2022-10-10T05:46:36.821Z,3.78
2022-10-10T05:49:03.576Z,4.07
2022-10-10T05:51:30.279Z,4.13
2022-10-10T05:53:57.506Z,4.50
2022-10-10T05:58:51.430Z,4.70
2022-10-10T06:01:18.086Z,5.07
2022-10-10T06:03:44.770Z,4.90
2022-10-10T06:06:11.409Z,5.03
2022-10-10T06:08:38.032Z,5.25
2022-10-10T06:11:06.220Z,5.05
2022-10-10T06:13:32.876Z,5.35
2022-10-10T06:15:59.509Z,5.03
2022-10-10T06:18:26.150Z,4.68
2022-10-10T06:20:52.784Z,4.72
2022-10-10T06:23:20.191Z,4.88
2022-10-10T06:25:47.127Z,5.45
2022-10-10T06:28:13.847Z,5.10
2022-10-10T06:30:44.173Z,5.05
2022-10-10T06:35:47.693Z,5.38
2022-10-10T06:40:41.161Z,5.18
2022-10-10T06:43:11.874Z,4.88
2022-10-10T06:48:08.581Z,5.07
2022-10-10T06:50:35.735Z,5.03
2022-10-10T06:53:02.339Z,5.40
2022-10-10T06:57:54.715Z,5.22
2022-10-10T07:00:21.410Z,5.57
2022-10-10T07:02:48.243Z,4.50
2022-10-10T07:05:16.538Z,5.10
2022-10-10T07:07:43.369Z,5.30
2022-10-10T07:10:14.140Z,5.47
2022-10-10T07:12:44.430Z,5.28
2022-10-10T07:15:11.879Z,5.60
2022-10-10T07:17:38.598Z,5.72
2022-10-10T07:20:06.073Z,6.05
2022-10-10T07:22:32.719Z,6.15
2022-10-10T07:24:59.331Z,5.05
2022-10-10T07:27:25.995Z,4.57
2022-10-10T07:29:52.655Z,5.10
2022-10-10T07:32:19.259Z,5.10
2022-10-10T07:34:45.892Z,6.30
2022-10-10T07:37:12.461Z,6.07
2022-10-10T07:46:55.589Z,5.68
2022-10-10T07:49:22.304Z,5.50
2022-10-10T07:51:48.884Z,5.60
2022-10-10T07:54:15.544Z,6.00
2022-10-10T08:01:33.038Z,5.93
2022-10-10T08:03:59.780Z,6.55
2022-10-10T08:06:26.447Z,6.85
2022-10-10T08:08:53.174Z,7.50
2022-10-10T08:16:14.056Z,7.38
2022-10-10T08:18:40.771Z,7.35
2022-10-10T08:21:08.933Z,8.73
2022-10-10T08:35:44.760Z,7.80
2022-10-10T08:38:11.531Z,7.13
2022-10-10T08:40:42.371Z,7.32
2022-10-10T08:43:09.758Z,6.68
2022-10-10T08:48:15.202Z,6.32
2022-10-10T08:50:46.675Z,5.80
2022-10-10T09:03:43.178Z,6.13
2022-10-10T09:06:12.878Z,6.65
2022-10-10T09:08:45.564Z,6.75
2022-10-10T09:11:12.197Z,6.57
2022-10-10T09:13:50.703Z,6.53
2022-10-10T09:16:23.448Z,7.05
2022-10-10T09:31:52.611Z,5.95
2022-10-10T09:34:23.344Z,5.50
2022-10-10T09:42:03.127Z,5.53
2022-10-10T09:44:30.256Z,5.65
2022-10-10T09:46:58.132Z,5.15
2022-10-10T09:49:24.737Z,5.50
2022-10-10T09:51:51.582Z,4.85
2022-10-10T09:54:19.596Z,4.82
2022-10-10T09:56:53.523Z,4.88
2022-10-10T09:59:38.759Z,5.00
2022-10-10T10:04:57.278Z,3.90
2022-10-10T10:07:23.919Z,4.22
2022-10-10T10:12:31.012Z,4.78
2022-10-10T10:14:59.438Z,3.92
2022-10-10T10:17:26.106Z,5.03
2022-10-10T10:24:57.489Z,4.57
2022-10-10T10:27:25.649Z,4.00
2022-10-10T10:32:27.454Z,3.33
2022-10-10T10:37:40.369Z,26.45
2022-10-10T10:40:10.230Z,7.45
2022-10-10T10:42:39.949Z,6.07
2022-10-10T10:45:06.536Z,5.35
2022-10-10T10:47:55.906Z,5.90
2022-10-10T10:50:40.207Z,5.07
2022-10-10T10:53:15.700Z,5.32
2022-10-10T10:55:45.392Z,5.00
2022-10-10T11:01:24.232Z,4.40
2022-10-10T11:05:17.481Z,4.20
2022-10-10T11:06:54.195Z,4.05
2022-10-10T11:09:49.091Z,4.75
2022-10-10T11:12:16.937Z,4.05
2022-10-10T11:15:01.653Z,4.95
2022-10-10T11:17:51.309Z,4.22
2022-10-10T11:20:34.853Z,4.25
2022-10-10T11:23:09.196Z,4.93
2022-10-10T11:25:57.062Z,4.18
2022-10-10T11:28:26.610Z,3.72
2022-10-10T11:38:56.760Z,4.55
2022-10-10T11:41:34.336Z,3.95
2022-10-10T11:44:10.151Z,3.90
2022-10-10T11:52:04.888Z,7.70
2022-10-10T11:54:51.228Z,3.10
2022-10-10T11:57:21.421Z,3.80
2022-10-10T12:02:23.342Z,2.90
2022-10-10T12:04:52.637Z,3.55
2022-10-10T12:07:29.249Z,3.38
2022-10-10T12:10:06.706Z,3.45
2022-10-10T12:15:03.070Z,3.83
2022-10-10T12:17:33.223Z,4.57
2022-10-10T12:25:21.815Z,4.70
2022-10-10T12:28:02.779Z,4.43
2022-10-10T12:30:29.698Z,4.53
2022-10-10T12:32:56.661Z,3.08
2022-10-10T12:38:09.871Z,3.40
2022-10-10T12:40:56.474Z,3.35
2022-10-10T12:43:25.930Z,4.10
2022-10-10T12:45:55.709Z,3.95
2022-10-10T12:48:22.371Z,2.70
2022-10-10T12:50:57.144Z,2.38
2022-10-10T12:53:24.398Z,3.13
2022-10-10T12:55:53.698Z,3.35
2022-10-10T12:58:26.446Z,3.53
2022-10-10T13:03:26.601Z,3.20
2022-10-10T13:05:53.791Z,2.88
2022-10-10T13:08:24.292Z,2.42
2022-10-10T13:11:27.281Z,3.10
2022-10-10T13:18:56.069Z,2.80
2022-10-10T13:26:24.108Z,2.40
2022-10-10T13:28:51.858Z,3.38
2022-10-10T13:31:19.902Z,3.33
2022-10-10T13:33:46.680Z,2.70
2022-10-10T13:36:21.067Z,4.40
2022-10-10T13:38:51.081Z,2.67
2022-10-10T13:41:18.880Z,2.50
2022-10-10T13:43:45.553Z,2.22
2022-10-10T13:46:20.530Z,3.30
2022-10-10T13:48:47.290Z,3.47
2022-10-10T13:51:14.883Z,3.20
2022-10-10T13:53:41.509Z,4.55
2022-10-10T13:56:20.412Z,3.17
2022-10-10T13:58:55.370Z,4.00
2022-10-10T14:01:39.375Z,1.67
2022-10-10T14:04:08.850Z,2.22
2022-10-10T14:06:35.883Z,1.45
2022-10-10T14:09:05.363Z,2.03
2022-10-10T14:11:32.942Z,2.60
2022-10-10T14:14:03.140Z,2.53
2022-10-10T14:23:46.498Z,2.80
2022-10-10T14:26:15.510Z,2.10
2022-10-10T14:28:42.354Z,3.00
2022-10-10T14:50:40.323Z,3.20
2022-10-10T14:53:06.999Z,2.67
2022-10-10T14:55:33.795Z,2.13
2022-10-10T14:58:00.496Z,2.63
2022-10-10T15:00:27.997Z,4.05
2022-10-10T15:07:45.950Z,2.38
2022-10-10T15:10:33.758Z,2.05
2022-10-10T15:15:25.445Z,2.45
2022-10-10T15:17:52.083Z,3.72
2022-10-10T15:25:09.894Z,1.60
2022-10-10T15:27:37.079Z,2.75
2022-10-10T15:39:46.319Z,3.15
2022-10-10T15:42:17.271Z,2.50
2022-10-10T15:44:48.137Z,2.67
2022-10-10T15:47:15.689Z,2.63
2022-10-10T15:49:42.604Z,3.10
2022-10-10T15:54:35.306Z,2.50
2022-10-10T15:57:01.972Z,2.35
2022-10-10T15:59:28.559Z,2.30
2022-10-10T16:01:55.587Z,2.10
2022-10-10T16:04:22.686Z,2.55
2022-10-10T16:06:59.346Z,2.22
2022-10-10T16:11:59.053Z,2.08
2022-10-10T16:14:25.904Z,1.83
2022-10-10T16:16:52.636Z,1.50
2022-10-10T16:19:19.314Z,2.13
2022-10-10T16:21:46.166Z,1.90
2022-10-10T16:24:13.015Z,1.73
2022-10-10T16:26:39.652Z,1.83
2022-10-10T16:29:07.067Z,2.50
2022-10-10T16:31:35.430Z,2.03
2022-10-10T16:34:02.463Z,1.85
2022-10-10T16:36:30.514Z,1.98
2022-10-10T16:41:46.369Z,1.90
2022-10-10T16:49:02.023Z,2.30
2022-10-10T16:53:56.011Z,1.88
2022-10-10T16:56:22.993Z,1.55
2022-10-10T17:03:43.897Z,2.30
2022-10-10T17:06:21.996Z,2.10
2022-10-10T17:08:49.591Z,2.45
2022-10-10T17:11:20.335Z,1.80
2022-10-10T17:26:23.735Z,2.47
2022-10-10T17:28:50.686Z,3.05
2022-10-10T17:33:53.590Z,1.73
2022-10-10T17:36:22.775Z,2.85
2022-10-10T17:38:58.823Z,2.42
2022-10-10T17:41:25.643Z,2.08
2022-10-10T17:43:52.685Z,1.90
2022-10-10T17:46:39.812Z,2.45
2022-10-10T17:51:34.438Z,2.30
2022-10-10T17:54:01.614Z,3.35
2022-10-10T17:56:28.823Z,2.30
2022-10-10T17:58:55.772Z,2.22
2022-10-10T18:01:22.639Z,2.30
2022-10-10T18:06:15.912Z,1.73
2022-10-10T18:08:42.847Z,1.80
2022-10-10T18:11:19.768Z,1.95
2022-10-10T18:13:46.483Z,2.45
2022-10-10T18:16:14.061Z,2.63
2022-10-10T18:18:41.507Z,2.45
2022-10-10T18:21:09.053Z,2.97
2022-10-10T18:23:36.317Z,2.00
2022-10-10T18:28:33.205Z,2.13
2022-10-10T18:31:00.506Z,1.70
2022-10-10T18:38:20.199Z,1.92
2022-10-10T18:40:47.370Z,1.73
2022-10-10T18:43:14.522Z,2.22
2022-10-10T18:45:41.367Z,1.65
2022-10-10T18:48:08.757Z,1.35
2022-10-10T18:50:36.063Z,1.95
2022-10-10T18:53:04.191Z,1.40
2022-10-10T18:55:32.393Z,1.55
2022-10-10T18:58:00.187Z,2.20
2022-10-10T19:00:27.721Z,2.63
2022-10-10T19:02:55.112Z,1.35
2022-10-10T19:05:27.369Z,2.60
2022-10-10T19:07:54.086Z,1.70
2022-10-10T19:10:20.801Z,1.83
2022-10-10T19:12:48.280Z,2.05
2022-10-10T19:15:15.088Z,1.70
2022-10-10T19:34:42.209Z,2.10
2022-10-10T19:37:08.915Z,2.53
2022-10-10T19:39:35.656Z,2.75
2022-10-10T19:42:02.266Z,1.65
2022-10-10T19:44:28.925Z,1.98
2022-10-10T19:46:56.374Z,1.92
2022-10-10T19:51:48.494Z,1.60
2022-10-10T19:54:15.146Z,1.80
2022-10-10T19:56:41.838Z,1.85
2022-10-10T19:59:08.615Z,1.80
2022-10-10T20:01:35.403Z,2.33
2022-10-10T20:04:02.167Z,2.13
2022-10-10T20:06:28.805Z,1.80
2022-10-10T20:08:55.542Z,1.55
2022-10-10T20:11:23.335Z,2.13
2022-10-10T20:13:53.193Z,2.03
2022-10-10T20:16:20.387Z,1.77
2022-10-10T20:21:17.703Z,2.30
2022-10-10T20:23:45.615Z,1.85
2022-10-10T20:26:13.318Z,2.42
2022-10-10T20:28:40.445Z,2.50
2022-10-10T20:31:13.047Z,3.90
2022-10-10T20:33:39.589Z,2.78
2022-10-10T20:38:31.682Z,3.28
2022-10-10T20:41:02.161Z,2.50
2022-10-10T20:48:19.613Z,3.67
2022-10-10T20:50:46.279Z,4.70
2022-10-10T20:53:13.246Z,4.97
2022-10-10T20:55:39.884Z,4.93
2022-10-10T20:58:06.513Z,4.90
2022-10-10T21:02:58.639Z,4.35
2022-10-10T21:10:53.684Z,2.05
2022-10-10T21:13:20.363Z,2.05
2022-10-10T21:15:46.942Z,2.40
2022-10-10T21:25:31.047Z,2.33
2022-10-10T21:27:57.727Z,2.08
2022-10-10T21:30:25.241Z,2.17
2022-10-10T21:32:51.931Z,2.47
2022-10-10T21:35:18.543Z,2.00
2022-10-10T21:37:45.623Z,2.20
2022-10-10T21:42:38.827Z,2.38
2022-10-10T21:45:05.811Z,2.25
2022-10-10T21:57:14.783Z,2.08
2022-10-10T21:59:41.429Z,2.88
2022-10-10T22:02:08.062Z,2.45
2022-10-10T22:04:34.704Z,2.60
2022-10-10T22:07:03.717Z,2.20
2022-10-10T22:09:30.344Z,2.13
2022-10-10T22:11:56.955Z,2.03
2022-10-10T22:14:23.510Z,2.00
2022-10-10T22:19:15.511Z,2.40
2022-10-10T22:21:42.171Z,2.30
2022-10-10T22:24:08.952Z,2.33
2022-10-10T22:26:35.601Z,2.75
2022-10-10T22:29:02.319Z,2.10
2022-10-10T22:38:45.823Z,1.77
2022-10-10T22:41:12.777Z,1.95
2022-10-10T22:48:30.390Z,2.40
2022-10-10T22:51:01.446Z,3.50
2022-10-10T22:53:28.877Z,1.70
2022-10-10T22:55:55.659Z,2.40
2022-10-10T22:58:22.320Z,2.72
2022-10-10T23:00:49.003Z,2.42
2022-10-10T23:03:15.620Z,2.15
2022-10-10T23:05:43.176Z,2.35
2022-10-10T23:08:09.884Z,2.38
2022-10-10T23:10:36.481Z,1.75
2022-10-10T23:15:28.531Z,2.50
2022-10-10T23:17:55.155Z,2.33
2022-10-10T23:20:21.784Z,2.40
2022-10-10T23:22:48.426Z,3.08
2022-10-10T23:25:15.059Z,2.80
2022-10-10T23:27:41.844Z,2.80
2022-10-10T23:30:09.303Z,3.08
2022-10-10T23:32:35.861Z,3.00
2022-10-10T23:37:28.855Z,3.88
2022-10-10T23:39:55.520Z,3.45
2022-10-10T23:42:22.230Z,2.22
2022-10-10T23:44:48.875Z,2.58
2022-10-10T23:47:15.523Z,1.95
2022-10-10T23:49:42.320Z,1.70
2022-10-10T23:52:08.917Z,1.77
2022-10-10T23:54:35.522Z,1.95
2022-10-10T23:57:02.155Z,1.55
2022-10-10T23:59:28.891Z,1.73
